createdAt,value
2023-03-03T00:00:02.149Z,1
2023-03-03T00:00:59.632Z,0.9
2023-03-03T00:02:00.281Z,1
2023-03-03T00:02:59.925Z,1
2023-03-03T00:03:59.438Z,1
2023-03-03T00:05:00.152Z,1
2023-03-03T00:05:59.666Z,1
2023-03-03T00:07:00.242Z,1
2023-03-03T00:07:59.831Z,1
2023-03-03T00:08:59.451Z,1
2023-03-03T00:10:00.015Z,1.1
2023-03-03T00:10:59.605Z,1
2023-03-03T00:12:00.188Z,1.1
2023-03-03T00:12:59.793Z,1.1
2023-03-03T00:13:59.391Z,1.1
2023-03-03T00:15:00.002Z,1.1
2023-03-03T00:15:59.619Z,1
2023-03-03T00:17:00.181Z,1.1
2023-03-03T00:17:59.778Z,1
2023-03-03T00:18:59.355Z,1
2023-03-03T00:19:59.973Z,0.9
2023-03-03T00:20:59.570Z,0.9
2023-03-03T00:22:00.155Z,0.9
2023-03-03T00:22:59.742Z,0.9
2023-03-03T00:23:59.330Z,0.9
2023-03-03T00:24:59.940Z,0.8
2023-03-03T00:25:59.532Z,0.9
2023-03-03T00:27:00.097Z,0.9
2023-03-03T00:27:59.684Z,0.9
2023-03-03T00:29:00.255Z,0.9
2023-03-03T00:29:59.902Z,0.9
2023-03-03T00:30:59.532Z,0.9
2023-03-03T00:32:00.158Z,1
2023-03-03T00:32:59.723Z,0.9
2023-03-03T00:33:59.309Z,0.9
2023-03-03T00:34:59.916Z,0.9
2023-03-03T00:35:59.579Z,0.8
2023-03-03T00:37:00.123Z,0.9
2023-03-03T00:37:59.803Z,0.8
2023-03-03T00:38:59.340Z,0.8
2023-03-03T00:39:59.907Z,0.8
2023-03-03T00:40:59.497Z,0.8
2023-03-03T00:42:00.100Z,0.9
2023-03-03T00:42:59.706Z,0.9
2023-03-03T00:43:59.376Z,0.9
2023-03-03T00:44:59.863Z,0.9
2023-03-03T00:45:59.481Z,0.9
2023-03-03T00:47:00.096Z,0.9
2023-03-03T00:48:00.174Z,0.9
2023-03-03T00:49:00.274Z,0.9
2023-03-03T00:49:59.879Z,0.9
2023-03-03T00:50:59.499Z,0.9
2023-03-03T00:52:00.094Z,1
2023-03-03T00:52:59.700Z,0.9
2023-03-03T00:54:00.280Z,0.9
2023-03-03T00:54:59.887Z,1
2023-03-03T00:55:59.548Z,1
2023-03-03T00:57:00.051Z,1
2023-03-03T00:57:59.651Z,0.9
2023-03-03T00:59:00.240Z,1
2023-03-03T00:59:59.849Z,1
2023-03-03T01:00:59.445Z,1
2023-03-03T01:02:00.049Z,1
2023-03-03T01:02:59.764Z,1
2023-03-03T01:04:00.255Z,1
2023-03-03T01:04:59.850Z,1
2023-03-03T01:05:59.459Z,1
2023-03-03T01:07:00.024Z,0.8
2023-03-03T01:07:59.611Z,0.8
2023-03-03T01:09:00.207Z,0.8
2023-03-03T01:09:59.798Z,0.8
2023-03-03T01:10:59.392Z,0.8
2023-03-03T01:11:59.959Z,0.8
2023-03-03T01:12:59.551Z,0.8
2023-03-03T01:14:00.186Z,0.8
2023-03-03T01:14:59.767Z,0.8
2023-03-03T01:15:59.425Z,0.8
2023-03-03T01:16:59.916Z,0.8
2023-03-03T01:17:59.516Z,0.8
2023-03-03T01:19:00.112Z,0.8
2023-03-03T01:19:59.705Z,0.9
2023-03-03T01:21:00.303Z,0.9
2023-03-03T01:21:59.913Z,0.9
2023-03-03T01:22:59.503Z,0.9
2023-03-03T01:24:00.108Z,0.9
2023-03-03T01:25:00.314Z,0.9
2023-03-03T01:25:59.983Z,0.8
2023-03-03T01:26:59.592Z,0.8
2023-03-03T01:28:00.199Z,0.8
2023-03-03T01:28:59.791Z,0.8
2023-03-03T01:29:59.370Z,0.8
2023-03-03T01:30:59.976Z,0.8
2023-03-03T01:31:59.690Z,0.8
2023-03-03T01:33:00.190Z,0.8
2023-03-03T01:33:59.793Z,0.8
2023-03-03T01:34:59.387Z,0.8
2023-03-03T01:35:59.966Z,0.8
2023-03-03T01:36:59.587Z,0.7
2023-03-03T01:38:00.181Z,0.8
2023-03-03T01:38:59.787Z,0.8
2023-03-03T01:39:59.339Z,0.8
2023-03-03T01:40:59.936Z,0.8
2023-03-03T01:41:59.553Z,0.8
2023-03-03T01:43:00.131Z,0.8
2023-03-03T01:43:59.792Z,0.8
2023-03-03T01:44:59.297Z,0.8
2023-03-03T01:45:59.875Z,0.8
2023-03-03T01:46:59.469Z,0.8
2023-03-03T01:48:00.110Z,0.8
2023-03-03T01:48:59.714Z,0.8
2023-03-03T01:50:00.269Z,0.8
2023-03-03T01:50:59.882Z,0.8
2023-03-03T01:51:59.472Z,0.8
2023-03-03T01:53:00.065Z,0.8
2023-03-03T01:53:59.690Z,0.8
2023-03-03T01:55:00.266Z,0.8
2023-03-03T01:55:59.874Z,0.8
2023-03-03T01:56:59.470Z,0.8
2023-03-03T01:58:00.064Z,0.8
2023-03-03T01:58:59.690Z,0.8
2023-03-03T02:00:00.274Z,0.8
2023-03-03T02:00:59.868Z,0.8
2023-03-03T02:01:59.472Z,0.7
2023-03-03T02:03:00.171Z,0.8
2023-03-03T02:03:59.693Z,0.7
2023-03-03T02:05:00.299Z,0.7
2023-03-03T02:05:59.891Z,0.8
2023-03-03T02:06:59.517Z,0.7
2023-03-03T02:08:00.117Z,0.8
2023-03-03T02:08:59.706Z,0.8
2023-03-03T02:09:59.294Z,0.8
2023-03-03T02:10:59.908Z,0.8
2023-03-03T02:11:59.813Z,0.8
2023-03-03T02:13:00.103Z,0.8
2023-03-03T02:13:59.695Z,0.8
2023-03-03T02:15:00.265Z,0.9
2023-03-03T02:15:59.928Z,0.8
2023-03-03T02:16:59.496Z,0.8
2023-03-03T02:18:00.089Z,0.9
2023-03-03T02:18:59.690Z,0.8
2023-03-03T02:20:00.257Z,0.8
2023-03-03T02:20:59.881Z,0.8
2023-03-03T02:21:59.476Z,0.9
2023-03-03T02:23:00.119Z,0.8
2023-03-03T02:23:59.698Z,0.9
2023-03-03T02:25:00.283Z,0.9
2023-03-03T02:25:59.898Z,0.8
2023-03-03T02:26:59.484Z,0.8
2023-03-03T02:28:00.106Z,0.8
2023-03-03T02:28:59.701Z,0.8
2023-03-03T02:30:00.268Z,0.8
2023-03-03T02:30:59.863Z,0.8
2023-03-03T02:31:59.570Z,0.8
2023-03-03T02:33:00.040Z,0.8
2023-03-03T02:33:59.634Z,0.8
2023-03-03T02:35:00.208Z,0.7
2023-03-03T02:35:59.843Z,0.7
2023-03-03T02:36:59.404Z,0.8
2023-03-03T02:37:59.970Z,0.7
2023-03-03T02:38:59.586Z,0.7
2023-03-03T02:40:00.180Z,0.7
2023-03-03T02:40:59.770Z,0.6
2023-03-03T02:41:59.348Z,0.6
2023-03-03T02:42:59.916Z,0.6
2023-03-03T02:43:59.525Z,0.6
2023-03-03T02:45:00.161Z,0.6
2023-03-03T02:45:59.790Z,0.6
2023-03-03T02:46:59.323Z,0.6
2023-03-03T02:48:00.125Z,0.6
2023-03-03T02:48:59.557Z,0.6
2023-03-03T02:50:00.154Z,0.6
2023-03-03T02:50:59.747Z,0.6
2023-03-03T02:51:59.321Z,0.7
2023-03-03T02:52:59.892Z,0.7
2023-03-03T02:53:59.491Z,0.6
2023-03-03T02:55:00.126Z,0.6
2023-03-03T02:55:59.728Z,0.6
2023-03-03T02:56:59.303Z,0.5
2023-03-03T02:57:59.880Z,0.5
2023-03-03T02:58:59.468Z,0.5
2023-03-03T03:00:00.086Z,0.6
2023-03-03T03:00:59.735Z,0.5
2023-03-03T03:02:00.286Z,0.5
2023-03-03T03:02:59.888Z,0.5
2023-03-03T03:03:59.519Z,0.5
2023-03-03T03:05:00.081Z,0.5
2023-03-03T03:05:59.679Z,0.5
2023-03-03T03:07:00.276Z,0.5
2023-03-03T03:07:59.887Z,0.5
2023-03-03T03:08:59.467Z,0.5
2023-03-03T03:10:00.108Z,0.4
2023-03-03T03:10:59.716Z,0.5
2023-03-03T03:11:59.282Z,0.5
2023-03-03T03:12:59.850Z,0.6
2023-03-03T03:13:59.442Z,0.6
2023-03-03T03:15:00.047Z,0.6
2023-03-03T03:15:59.698Z,0.5
2023-03-03T03:17:00.250Z,0.5
2023-03-03T03:17:59.836Z,0.4
2023-03-03T03:18:59.420Z,0.4
2023-03-03T03:20:00.032Z,0.4
2023-03-03T03:20:59.627Z,0.4
2023-03-03T03:22:00.198Z,0.5
2023-03-03T03:22:59.784Z,0.5
2023-03-03T03:23:59.388Z,0.4
2023-03-03T03:24:59.976Z,0.4
2023-03-03T03:25:59.563Z,0.4
2023-03-03T03:27:00.191Z,0.4
2023-03-03T03:27:59.779Z,0.4
2023-03-03T03:28:59.424Z,0.5
2023-03-03T03:29:59.936Z,0.5
2023-03-03T03:30:59.581Z,0.6
2023-03-03T03:32:00.181Z,0.6
2023-03-03T03:32:59.760Z,0.5
2023-03-03T03:33:59.363Z,0.5
2023-03-03T03:34:59.930Z,0.4
2023-03-03T03:35:59.516Z,0.4
2023-03-03T03:37:00.122Z,0.4
2023-03-03T03:37:59.715Z,0.3
2023-03-03T03:38:59.348Z,0.4
2023-03-03T03:39:59.877Z,0.3
2023-03-03T03:40:59.466Z,0.3
2023-03-03T03:42:00.045Z,0.3
2023-03-03T03:42:59.666Z,0.3
2023-03-03T03:44:00.242Z,0.3
2023-03-03T03:44:59.860Z,0.4
2023-03-03T03:45:59.536Z,0.3
2023-03-03T03:47:00.029Z,0.3
2023-03-03T03:47:59.624Z,0.3
2023-03-03T03:49:00.211Z,0.3
2023-03-03T03:49:59.824Z,0.4
2023-03-03T03:50:59.418Z,0.3
2023-03-03T03:52:00.006Z,0.3
2023-03-03T03:52:59.597Z,0.2
2023-03-03T03:54:00.191Z,0.2
2023-03-03T03:54:59.784Z,0.1
2023-03-03T03:55:59.391Z,0.1
2023-03-03T03:56:59.954Z,0.1
2023-03-03T03:57:59.551Z,0.1
2023-03-03T03:59:00.151Z,0.1
2023-03-03T03:59:59.746Z,0.1
2023-03-03T04:00:59.340Z,0.2
2023-03-03T04:01:59.941Z,0.2
2023-03-03T04:02:59.640Z,0.2
2023-03-03T04:04:00.135Z,0.3
2023-03-03T04:04:59.721Z,0.3
2023-03-03T04:05:59.328Z,0.3
2023-03-03T04:06:59.896Z,0.3
2023-03-03T04:07:59.498Z,0.2
2023-03-03T04:09:00.095Z,0.1
2023-03-03T04:09:59.704Z,0.1
2023-03-03T04:11:00.266Z,0.1
2023-03-03T04:11:59.857Z,0.1
2023-03-03T04:12:59.450Z,0.1
2023-03-03T04:14:00.039Z,0.2
2023-03-03T04:14:59.678Z,0.1
2023-03-03T04:16:00.282Z,0.2
2023-03-03T04:16:59.889Z,0.2
2023-03-03T04:17:59.465Z,0.2
2023-03-03T04:19:00.037Z,0.2
2023-03-03T04:19:59.644Z,0.2
2023-03-03T04:21:00.216Z,0.1
2023-03-03T04:21:59.807Z,0.1
2023-03-03T04:22:59.400Z,0.2
2023-03-03T04:23:59.999Z,0.1
2023-03-03T04:24:59.613Z,0.1
2023-03-03T04:26:00.166Z,0.1
2023-03-03T04:26:59.771Z,0.1
2023-03-03T04:27:59.337Z,0.1
2023-03-03T04:28:59.912Z,0.1
2023-03-03T04:29:59.500Z,0.1
2023-03-03T04:31:00.162Z,0.1
2023-03-03T04:31:59.772Z,0.1
2023-03-03T04:32:59.307Z,0.1
2023-03-03T04:33:59.909Z,0.1
2023-03-03T04:35:07.484Z,0
2023-03-03T04:36:00.048Z,0.1
2023-03-03T04:36:59.653Z,0
2023-03-03T04:38:00.228Z,0
2023-03-03T04:38:59.855Z,0.1
2023-03-03T04:39:59.443Z,0.1
2023-03-03T04:41:00.020Z,0.2
2023-03-03T04:41:59.616Z,0.3
2023-03-03T04:43:00.201Z,0.3
2023-03-03T04:43:59.833Z,0.3
2023-03-03T04:44:59.466Z,0.2
2023-03-03T04:46:00.333Z,0.2
2023-03-03T04:46:59.677Z,0.2
2023-03-03T04:48:00.283Z,0.2
2023-03-03T04:48:59.883Z,0.2
2023-03-03T04:49:59.491Z,0.3
2023-03-03T04:51:00.056Z,0.2
2023-03-03T04:51:59.652Z,0.2
2023-03-03T04:53:00.230Z,0.3
2023-03-03T04:53:59.822Z,0.3
2023-03-03T04:54:59.430Z,0.3
2023-03-03T04:55:59.992Z,0.2
2023-03-03T04:56:59.583Z,0.2
2023-03-03T04:58:00.166Z,0.1
2023-03-03T04:58:59.755Z,0.1
2023-03-03T04:59:59.372Z,0.2
2023-03-03T05:00:59.920Z,0
2023-03-03T05:01:59.560Z,0
2023-03-03T05:03:00.128Z,0
2023-03-03T05:03:59.744Z,0.1
2023-03-03T05:04:59.354Z,0.1
2023-03-03T05:05:59.889Z,0.1
2023-03-03T05:06:59.496Z,0.1
2023-03-03T05:08:00.079Z,0.1
2023-03-03T05:08:59.674Z,0.1
2023-03-03T05:10:00.257Z,0.2
2023-03-03T05:10:59.896Z,0.2
2023-03-03T05:11:59.492Z,0.2
2023-03-03T05:13:00.093Z,0.2
2023-03-03T05:13:59.680Z,0.1
2023-03-03T05:15:00.287Z,0.1
2023-03-03T05:15:59.898Z,0.2
2023-03-03T05:16:59.491Z,0.2
2023-03-03T05:18:00.102Z,0.1
2023-03-03T05:18:59.715Z,0.1
2023-03-03T05:20:00.285Z,0.2
2023-03-03T05:20:59.897Z,0.2
2023-03-03T05:21:59.482Z,0.2
2023-03-03T05:23:00.052Z,0.2
2023-03-03T05:23:59.649Z,0.2
2023-03-03T05:25:00.233Z,0.2
2023-03-03T05:25:59.849Z,0.2
2023-03-03T05:26:59.465Z,0.1
2023-03-03T05:28:00.017Z,0.1
2023-03-03T05:28:59.607Z,0.2
2023-03-03T05:30:00.198Z,0.2
2023-03-03T05:30:59.832Z,0.3
2023-03-03T05:31:59.410Z,0.3
2023-03-03T05:32:59.949Z,0.3
2023-03-03T05:33:59.543Z,0.3
2023-03-03T05:35:00.144Z,0.4
2023-03-03T05:35:59.744Z,0.3
2023-03-03T05:36:59.317Z,0.2
2023-03-03T05:37:59.871Z,0.2
2023-03-03T05:38:59.456Z,0.2
2023-03-03T05:40:00.056Z,0.3
2023-03-03T05:40:59.679Z,0.2
2023-03-03T05:42:00.246Z,0.2
2023-03-03T05:42:59.910Z,0.2
2023-03-03T05:43:59.459Z,0.2
2023-03-03T05:45:00.050Z,0.2
2023-03-03T05:45:59.693Z,0.2
2023-03-03T05:46:59.398Z,0.3
2023-03-03T05:47:59.826Z,0.3
2023-03-03T05:48:59.423Z,0.3
2023-03-03T05:49:59.988Z,0.4
2023-03-03T05:50:59.625Z,0.3
2023-03-03T05:52:00.173Z,0.4
2023-03-03T05:52:59.759Z,0.4
2023-03-03T05:53:59.352Z,0.4
2023-03-03T05:54:59.935Z,0.5
2023-03-03T05:55:59.557Z,0.5
2023-03-03T05:57:00.123Z,0.4
2023-03-03T05:57:59.712Z,0.3
2023-03-03T05:58:59.301Z,0.3
2023-03-03T05:59:59.886Z,0.4
2023-03-03T06:00:59.491Z,0.3
2023-03-03T06:02:00.149Z,0.4
2023-03-03T06:02:59.840Z,0.3
2023-03-03T06:03:59.295Z,0.3
2023-03-03T06:04:59.858Z,0.3
2023-03-03T06:05:59.445Z,0.4
2023-03-03T06:07:00.068Z,0.4
2023-03-03T06:07:59.665Z,0.3
2023-03-03T06:09:00.234Z,0.4
2023-03-03T06:09:59.828Z,0.3
2023-03-03T06:10:59.425Z,0.3
2023-03-03T06:12:00.035Z,0.3
2023-03-03T06:12:59.659Z,0.3
2023-03-03T06:14:00.221Z,0.3
2023-03-03T06:14:59.808Z,0.4
2023-03-03T06:15:59.401Z,0.4
2023-03-03T06:17:00.000Z,0.3
2023-03-03T06:17:59.601Z,0.3
2023-03-03T06:19:00.189Z,0.4
2023-03-03T06:19:59.781Z,0.4
2023-03-03T06:20:59.362Z,0.4
2023-03-03T06:22:00.820Z,0.4
2023-03-03T06:22:59.544Z,0.4
2023-03-03T06:24:00.137Z,0.5
2023-03-03T06:24:59.721Z,0.6
2023-03-03T06:25:59.313Z,0.5
2023-03-03T06:26:59.897Z,0.5
2023-03-03T06:27:59.511Z,0.5
2023-03-03T06:29:00.088Z,0.4
2023-03-03T06:29:59.675Z,0.5
2023-03-03T06:31:00.261Z,0.5
2023-03-03T06:32:00.037Z,0.5
2023-03-03T06:32:59.510Z,0.6
2023-03-03T06:34:00.118Z,0.5
2023-03-03T06:34:59.708Z,0.5
2023-03-03T06:35:59.341Z,0.5
2023-03-03T06:36:59.870Z,0.5
2023-03-03T06:37:59.499Z,0.5
2023-03-03T06:39:00.091Z,0.5
2023-03-03T06:39:59.682Z,0.4
2023-03-03T06:41:00.284Z,0.4
2023-03-03T06:41:59.872Z,0.4
2023-03-03T06:42:59.464Z,0.3
2023-03-03T06:44:00.094Z,0.3
2023-03-03T06:44:59.681Z,0.3
2023-03-03T06:46:00.396Z,0.4
2023-03-03T06:47:00.062Z,0.3
2023-03-03T06:47:59.484Z,0.3
2023-03-03T06:49:00.113Z,0.3
2023-03-03T06:49:59.705Z,0.3
2023-03-03T06:50:59.291Z,0.3
2023-03-03T06:51:59.880Z,0.3
2023-03-03T06:52:59.468Z,0.3
2023-03-03T06:54:00.100Z,0.3
2023-03-03T06:54:59.728Z,0.4
2023-03-03T06:55:59.273Z,0.5
2023-03-03T06:56:59.861Z,0.6
2023-03-03T06:57:59.448Z,0.6
2023-03-03T06:59:00.087Z,0.7
2023-03-03T06:59:59.696Z,0.7
2023-03-03T07:00:59.356Z,0.7
2023-03-03T07:01:59.867Z,0.6
2023-03-03T07:02:59.463Z,0.5
2023-03-03T07:04:00.062Z,0.5
2023-03-03T07:04:59.725Z,0.5
2023-03-03T07:05:59.285Z,0.5
2023-03-03T07:06:59.859Z,0.5
2023-03-03T07:07:59.447Z,0.5
2023-03-03T07:09:00.036Z,0.5
2023-03-03T07:09:59.644Z,0.5
2023-03-03T07:11:00.238Z,0.5
2023-03-03T07:11:59.848Z,0.4
2023-03-03T07:12:59.436Z,0.5
2023-03-03T07:14:00.012Z,0.5
2023-03-03T07:14:59.602Z,0.5
2023-03-03T07:16:00.179Z,0.5
2023-03-03T07:16:59.848Z,0.6
2023-03-03T07:17:59.356Z,0.5
2023-03-03T07:18:59.934Z,0.5
2023-03-03T07:19:59.521Z,0.5
2023-03-03T07:21:00.132Z,0.5
2023-03-03T07:21:59.744Z,0.6
2023-03-03T07:22:59.323Z,0.5
2023-03-03T07:23:59.873Z,0.5
2023-03-03T07:24:59.462Z,0.5
2023-03-03T07:26:00.039Z,0.5
2023-03-03T07:26:59.674Z,0.5
2023-03-03T07:28:00.234Z,0.5
2023-03-03T07:28:59.842Z,0.6
2023-03-03T07:29:59.428Z,0.6
2023-03-03T07:31:00.091Z,0.7
2023-03-03T07:31:59.749Z,0.7
2023-03-03T07:33:00.275Z,0.7
2023-03-03T07:33:59.864Z,0.6
2023-03-03T07:34:59.501Z,0.6
2023-03-03T07:36:00.059Z,0.6
2023-03-03T07:36:59.657Z,0.6
2023-03-03T07:38:00.245Z,0.6
2023-03-03T07:39:00.076Z,0.6
2023-03-03T07:39:59.480Z,0.7
2023-03-03T07:41:00.036Z,0.7
2023-03-03T07:41:59.625Z,0.8
2023-03-03T07:43:00.234Z,0.7
2023-03-03T07:43:59.821Z,0.6
2023-03-03T07:44:59.437Z,0.6
2023-03-03T07:46:02.455Z,0.7
2023-03-03T07:46:59.540Z,0.6
2023-03-03T07:48:00.537Z,0.6
2023-03-03T07:48:59.789Z,0.6
2023-03-03T07:49:59.396Z,0.7
2023-03-03T07:50:59.962Z,0.8
2023-03-03T07:51:59.564Z,0.8
2023-03-03T07:53:00.150Z,0.8
2023-03-03T07:53:59.743Z,0.9
2023-03-03T07:54:59.361Z,0.9
2023-03-03T07:55:59.923Z,1
2023-03-03T07:56:59.520Z,0.9
2023-03-03T07:58:00.112Z,0.9
2023-03-03T07:58:59.730Z,0.8
2023-03-03T07:59:59.318Z,0.8
2023-03-03T08:00:59.913Z,0.8
2023-03-03T08:01:59.464Z,0.8
2023-03-03T08:03:00.062Z,0.8
2023-03-03T08:03:59.673Z,0.8
2023-03-03T08:05:01.763Z,0.8
2023-03-03T08:05:59.784Z,0.8
2023-03-03T08:06:59.379Z,0.9
2023-03-03T08:07:59.953Z,0.9
2023-03-03T08:08:59.567Z,0.8
2023-03-03T08:10:00.201Z,0.8
2023-03-03T08:10:59.787Z,0.8
2023-03-03T08:11:59.348Z,0.9
2023-03-03T08:12:59.931Z,0.9
2023-03-03T08:13:59.542Z,0.9
2023-03-03T08:15:00.184Z,0.8
2023-03-03T08:15:59.783Z,0.9
2023-03-03T08:17:01.656Z,0.8
2023-03-03T08:17:59.878Z,0.9
2023-03-03T08:18:59.463Z,1
2023-03-03T08:20:00.054Z,1
2023-03-03T08:20:59.650Z,1.1
2023-03-03T08:22:00.253Z,1
2023-03-03T08:22:59.840Z,1
2023-03-03T08:23:59.429Z,1
2023-03-03T08:25:00.016Z,1.1
2023-03-03T08:25:59.617Z,1
2023-03-03T08:27:00.198Z,1.1
2023-03-03T08:27:59.810Z,1.1
2023-03-03T08:28:59.397Z,1.1
2023-03-03T08:29:59.948Z,1.2
2023-03-03T08:31:13.176Z,1.2
2023-03-03T08:32:00.253Z,1.2
2023-03-03T08:32:59.814Z,1.1
2023-03-03T08:33:59.371Z,1.1
2023-03-03T08:34:59.936Z,1
2023-03-03T08:35:59.585Z,1.1
2023-03-03T08:37:00.117Z,1.1
2023-03-03T08:37:59.734Z,0.9
2023-03-03T08:38:59.271Z,1
2023-03-03T08:39:59.855Z,1
2023-03-03T08:40:59.455Z,1.1
2023-03-03T08:42:00.032Z,1.1
2023-03-03T08:42:59.640Z,1
2023-03-03T08:44:00.210Z,1.1
2023-03-03T08:44:59.802Z,1.1
2023-03-03T08:45:59.406Z,1.1
2023-03-03T08:47:00.001Z,1
2023-03-03T08:47:59.607Z,1
2023-03-03T08:49:00.234Z,1.1
2023-03-03T08:49:59.820Z,1.1
2023-03-03T08:50:59.422Z,1.1
2023-03-03T08:51:59.992Z,1.3
2023-03-03T08:52:59.606Z,1.3
2023-03-03T08:54:00.187Z,1.2
2023-03-03T08:54:59.777Z,1.2
2023-03-03T08:55:59.361Z,1.2
2023-03-03T08:56:59.953Z,1.2
2023-03-03T08:57:59.546Z,1.2
2023-03-03T08:59:02.413Z,1.1
2023-03-03T08:59:59.701Z,1.1
2023-03-03T09:00:59.302Z,1
2023-03-03T09:01:59.928Z,1.1
2023-03-03T09:02:59.552Z,1.1
2023-03-03T09:04:00.168Z,1.1
2023-03-03T09:04:59.751Z,1.3
2023-03-03T09:05:59.335Z,1.3
2023-03-03T09:06:59.923Z,1.3
2023-03-03T09:07:59.512Z,1.4
2023-03-03T09:09:00.152Z,1.4
2023-03-03T09:09:59.766Z,1.5
2023-03-03T09:10:59.326Z,1.4
2023-03-03T09:11:59.904Z,1.4
2023-03-03T09:12:59.499Z,1.4
2023-03-03T09:14:00.140Z,1.4
2023-03-03T09:14:59.718Z,1.5
2023-03-03T09:15:59.346Z,1.4
2023-03-03T09:16:59.878Z,1.4
2023-03-03T09:17:59.466Z,1.4
2023-03-03T09:19:00.131Z,1.3
2023-03-03T09:19:59.722Z,1.3
2023-03-03T09:20:59.312Z,1.3
2023-03-03T09:21:59.876Z,1.3
2023-03-03T09:22:59.471Z,1.3
2023-03-03T09:24:00.088Z,1.3
2023-03-03T09:24:59.683Z,1.4
2023-03-03T09:26:00.274Z,1.3
2023-03-03T09:26:59.891Z,1.3
2023-03-03T09:27:59.488Z,1.4
2023-03-03T09:29:00.107Z,1.5
2023-03-03T09:29:59.718Z,1.6
2023-03-03T09:30:59.309Z,1.6
2023-03-03T09:31:59.999Z,1.6
2023-03-03T09:32:59.531Z,1.6
2023-03-03T09:34:00.174Z,1.6
2023-03-03T09:34:59.800Z,1.7
2023-03-03T09:35:59.435Z,1.8
2023-03-03T09:36:59.954Z,1.9
2023-03-03T09:37:59.569Z,1.9
2023-03-03T09:39:00.171Z,1.8
2023-03-03T09:39:59.762Z,1.8
2023-03-03T09:40:59.344Z,1.8
2023-03-03T09:41:59.949Z,1.7
2023-03-03T09:42:59.587Z,1.6
2023-03-03T09:44:00.143Z,1.7
2023-03-03T09:44:59.780Z,1.6
2023-03-03T09:45:59.363Z,1.8
2023-03-03T09:46:59.993Z,1.8
2023-03-03T09:47:59.587Z,1.8
2023-03-03T09:49:00.236Z,1.7
2023-03-03T09:50:02.426Z,1.8
2023-03-03T09:50:59.399Z,1.8
2023-03-03T09:51:59.974Z,1.8
2023-03-03T09:52:59.561Z,1.7
2023-03-03T09:54:00.160Z,1.8
2023-03-03T09:54:59.766Z,1.7
2023-03-03T09:55:59.346Z,1.7
2023-03-03T09:56:59.905Z,1.8
2023-03-03T09:58:09.872Z,1.9
2023-03-03T09:59:00.048Z,1.9
2023-03-03T09:59:59.643Z,1.8
2023-03-03T10:01:00.236Z,1.8
2023-03-03T10:01:59.826Z,1.7
2023-03-03T10:02:59.434Z,1.7
2023-03-03T10:04:00.115Z,1.7
2023-03-03T10:04:59.659Z,1.8
2023-03-03T10:06:00.237Z,1.8
2023-03-03T10:06:59.867Z,1.8
2023-03-03T10:07:59.454Z,1.9
2023-03-03T10:09:00.091Z,1.9
2023-03-03T10:09:59.687Z,2
2023-03-03T10:10:59.265Z,2
2023-03-03T10:11:59.840Z,2.1
2023-03-03T10:12:59.432Z,1.9
2023-03-03T10:14:00.034Z,1.9
2023-03-03T10:14:59.644Z,1.9
2023-03-03T10:16:00.317Z,2
2023-03-03T10:16:59.935Z,2
2023-03-03T10:17:59.455Z,2
2023-03-03T10:19:00.041Z,2
2023-03-03T10:19:59.655Z,2
2023-03-03T10:21:00.221Z,2.2
2023-03-03T10:21:59.812Z,2.1
2023-03-03T10:22:59.447Z,2.2
2023-03-03T10:23:59.989Z,2.2
2023-03-03T10:24:59.602Z,2.2
2023-03-03T10:26:00.173Z,2.2
2023-03-03T10:27:12.295Z,2.2
2023-03-03T10:27:59.346Z,2.1
2023-03-03T10:28:59.929Z,2
2023-03-03T10:29:59.548Z,1.9
2023-03-03T10:31:06.177Z,2
2023-03-03T10:31:59.853Z,1.9
2023-03-03T10:32:59.523Z,1.7
2023-03-03T10:34:00.040Z,1.8
2023-03-03T10:34:59.619Z,1.7
2023-03-03T10:36:06.871Z,1.7
2023-03-03T10:36:59.766Z,1.7
2023-03-03T10:37:59.366Z,1.6
2023-03-03T10:38:59.967Z,1.7
2023-03-03T10:39:59.574Z,1.8
2023-03-03T10:41:00.177Z,1.8
2023-03-03T10:41:59.778Z,1.8
2023-03-03T10:42:59.341Z,1.9
2023-03-03T10:43:59.922Z,2
2023-03-03T10:44:59.871Z,1.9
2023-03-03T10:46:00.179Z,2.2
2023-03-03T10:47:00.069Z,2
2023-03-03T10:47:59.343Z,2
2023-03-03T10:49:00.160Z,2
2023-03-03T10:49:59.969Z,2.1
2023-03-03T10:51:00.163Z,2.1
2023-03-03T10:52:00.116Z,2
2023-03-03T10:52:59.923Z,2.1
2023-03-03T10:53:59.605Z,2.1
2023-03-03T10:55:00.220Z,2
2023-03-03T10:55:59.856Z,2
2023-03-03T10:56:59.936Z,2.2
2023-03-03T10:57:59.999Z,2.3
2023-03-03T10:58:59.844Z,2.4
2023-03-03T11:00:00.218Z,2.3
2023-03-03T11:01:00.479Z,2.3
2023-03-03T11:02:00.186Z,2.5
2023-03-03T11:02:59.792Z,2.5
2023-03-03T11:03:59.401Z,2.6
2023-03-03T11:05:00.195Z,2.5
2023-03-03T11:05:59.755Z,2.7
2023-03-03T11:06:59.899Z,2.6
2023-03-03T11:07:59.515Z,2.7
2023-03-03T11:09:00.124Z,2.6
2023-03-03T11:09:59.719Z,2.7
2023-03-03T11:10:59.701Z,2.6
2023-03-03T11:11:59.906Z,2.5
2023-03-03T11:12:59.813Z,2.5
2023-03-03T11:14:00.109Z,2.7
2023-03-03T11:15:00.276Z,2.7
2023-03-03T11:16:00.009Z,2.5
2023-03-03T11:16:59.837Z,2.5
2023-03-03T11:17:59.699Z,2.5
2023-03-03T11:19:01.323Z,2.5
2023-03-03T11:20:00.104Z,2.6
2023-03-03T11:20:59.696Z,2.6
2023-03-03T11:21:59.890Z,2.8
2023-03-03T11:23:00.054Z,2.9
2023-03-03T11:23:59.793Z,3
2023-03-03T11:24:59.739Z,3.1
2023-03-03T11:26:00.053Z,2.9
2023-03-03T11:26:59.687Z,2.9
2023-03-03T11:28:00.243Z,3
2023-03-03T11:28:59.834Z,3
2023-03-03T11:29:59.442Z,2.8
2023-03-03T11:31:00.134Z,2.8
2023-03-03T11:31:59.730Z,2.9
2023-03-03T11:32:59.275Z,3
2023-03-03T11:33:59.845Z,2.9
2023-03-03T11:34:59.431Z,3
2023-03-03T11:36:00.072Z,3.1
2023-03-03T11:36:59.674Z,3.1
2023-03-03T11:38:00.250Z,3.3
2023-03-03T11:38:59.850Z,3.4
2023-03-03T11:39:59.439Z,3.3
2023-03-03T11:41:00.042Z,3.2
2023-03-03T11:41:59.629Z,3.2
2023-03-03T11:43:00.257Z,3.2
2023-03-03T11:43:59.846Z,3.1
2023-03-03T11:44:59.437Z,3.2
2023-03-03T11:46:00.120Z,3.2
2023-03-03T11:46:59.686Z,3.3
2023-03-03T11:47:59.284Z,3.3
2023-03-03T11:48:59.848Z,3.5
2023-03-03T11:49:59.437Z,3.5
2023-03-03T11:51:00.110Z,3.4
2023-03-03T11:51:59.684Z,3.4
2023-03-03T11:52:59.285Z,3.5
2023-03-03T11:53:59.859Z,3.3
2023-03-03T11:54:59.465Z,3.4
2023-03-03T11:56:00.046Z,3.3
2023-03-03T11:56:59.641Z,3.3
2023-03-03T11:58:00.225Z,3.4
2023-03-03T11:58:59.848Z,3.6
2023-03-03T11:59:59.464Z,3.4
2023-03-03T12:01:00.038Z,3.3
2023-03-03T12:01:59.689Z,3.5
2023-03-03T12:02:59.341Z,3.5
2023-03-03T12:03:59.866Z,3.3
2023-03-03T12:04:59.481Z,3.3
2023-03-03T12:06:00.140Z,3.5
2023-03-03T12:07:03.882Z,3.7
2023-03-03T12:08:00.243Z,3.5
2023-03-03T12:08:59.874Z,3.5
2023-03-03T12:09:59.509Z,3.4
2023-03-03T12:11:00.100Z,3.6
2023-03-03T12:11:59.687Z,3.8
2023-03-03T12:12:59.273Z,3.8
2023-03-03T12:13:59.856Z,3.8
2023-03-03T12:14:59.466Z,3.8
2023-03-03T12:16:00.070Z,3.7
2023-03-03T12:16:59.685Z,3.7
2023-03-03T12:18:00.244Z,3.7
2023-03-03T12:18:59.834Z,3.6
2023-03-03T12:19:59.434Z,3.6
2023-03-03T12:21:00.033Z,3.4
2023-03-03T12:21:59.661Z,3.5
2023-03-03T12:23:06.691Z,3.6
2023-03-03T12:23:59.755Z,3.6
2023-03-03T12:24:59.343Z,3.5
2023-03-03T12:25:59.938Z,3.6
2023-03-03T12:26:59.556Z,3.6
2023-03-03T12:28:00.118Z,3.6
2023-03-03T12:28:59.715Z,3.5
2023-03-03T12:29:59.295Z,3.5
2023-03-03T12:30:59.937Z,3.5
2023-03-03T12:31:59.585Z,3.5
2023-03-03T12:33:00.109Z,3.6
2023-03-03T12:33:59.703Z,3.7
2023-03-03T12:34:59.278Z,3.7
2023-03-03T12:35:59.955Z,3.6
2023-03-03T12:36:59.547Z,3.7
2023-03-03T12:38:00.121Z,3.6
2023-03-03T12:38:59.718Z,3.8
2023-03-03T12:39:59.322Z,4
2023-03-03T12:40:59.863Z,3.9
2023-03-03T12:41:59.449Z,3.8
2023-03-03T12:43:00.036Z,3.8
2023-03-03T12:43:59.628Z,3.8
2023-03-03T12:45:00.230Z,4
2023-03-03T12:45:59.818Z,3.8
2023-03-03T12:46:59.458Z,3.8
2023-03-03T12:47:59.984Z,3.9
2023-03-03T12:48:59.598Z,3.9
2023-03-03T12:50:07.199Z,4.1
2023-03-03T12:50:59.704Z,4.2
2023-03-03T12:51:59.342Z,4.3
2023-03-03T12:53:00.353Z,4.3
2023-03-03T12:53:59.908Z,4.4
2023-03-03T12:55:00.142Z,4.3
2023-03-03T12:55:59.725Z,4.4
2023-03-03T12:56:59.333Z,4.3
2023-03-03T12:57:59.898Z,4
2023-03-03T12:58:59.496Z,4.1
2023-03-03T13:00:00.094Z,4.1
2023-03-03T13:00:59.738Z,4.2
2023-03-03T13:01:59.301Z,4.2
2023-03-03T13:02:59.970Z,4
2023-03-03T13:03:59.542Z,4.2
2023-03-03T13:05:00.101Z,4.3
2023-03-03T13:05:59.693Z,4.1
2023-03-03T13:06:59.298Z,3.9
2023-03-03T13:07:59.879Z,4
2023-03-03T13:08:59.497Z,4.1
2023-03-03T13:10:00.114Z,4.1
2023-03-03T13:10:59.718Z,4.1
2023-03-03T13:11:59.306Z,4.1
2023-03-03T13:12:59.872Z,4
2023-03-03T13:13:59.465Z,4.2
2023-03-03T13:15:00.049Z,4.2
2023-03-03T13:16:02.969Z,4.3
2023-03-03T13:17:00.265Z,4.3
2023-03-03T13:17:59.869Z,4.2
2023-03-03T13:18:59.509Z,4
2023-03-03T13:20:00.166Z,4.2
2023-03-03T13:20:59.714Z,4.4
2023-03-03T13:21:59.291Z,4.4
2023-03-03T13:22:59.914Z,4.3
2023-03-03T13:23:59.506Z,4.2
2023-03-03T13:25:00.130Z,4.3
2023-03-03T13:25:59.806Z,4.3
2023-03-03T13:26:59.315Z,4.4
2023-03-03T13:27:59.920Z,4.6
2023-03-03T13:28:59.510Z,4.5
2023-03-03T13:30:00.127Z,4.6
2023-03-03T13:30:59.728Z,4.7
2023-03-03T13:31:59.471Z,4.4
2023-03-03T13:32:59.916Z,4.2
2023-03-03T13:33:59.527Z,4.3
2023-03-03T13:35:00.118Z,4.5
2023-03-03T13:35:59.786Z,4.5
2023-03-03T13:36:59.287Z,4.4
2023-03-03T13:37:59.857Z,4.6
2023-03-03T13:38:59.473Z,4.4
2023-03-03T13:40:00.051Z,4.3
2023-03-03T13:40:59.647Z,4.2
2023-03-03T13:42:00.228Z,4.2
2023-03-03T13:42:59.821Z,4.2
2023-03-03T13:43:59.443Z,4.1
2023-03-03T13:45:00.028Z,4.1
2023-03-03T13:45:59.649Z,4.1
2023-03-03T13:47:00.216Z,3.9
2023-03-03T13:47:59.835Z,3.9
2023-03-03T13:48:59.451Z,3.9
2023-03-03T13:50:00.046Z,3.9
2023-03-03T13:50:59.670Z,3.9